createdAt,value
2023-05-25T00:03:28.260Z,74.71
2023-05-25T00:08:30.605Z,74.66
2023-05-25T00:13:32.532Z,74.73
2023-05-25T00:18:37.966Z,74.32
2023-05-25T00:23:39.838Z,74.24
2023-05-25T00:28:41.816Z,73.92
2023-05-25T00:33:43.500Z,73.81
2023-05-25T00:38:45.428Z,74.15
2023-05-25T00:43:47.604Z,74.16
2023-05-25T00:48:54.539Z,73.66
2023-05-25T00:53:56.480Z,73.70
2023-05-25T00:59:06.975Z,73.74
2023-05-25T01:04:15.177Z,73.41
2023-05-25T01:09:19.268Z,73.42
2023-05-25T01:14:21.925Z,73.82
2023-05-25T01:19:23.806Z,73.64
2023-05-25T01:24:43.079Z,73.44
2023-05-25T01:29:46.789Z,73.96
2023-05-25T01:34:50.347Z,73.47
2023-05-25T01:39:51.997Z,73.30
2023-05-25T01:44:53.872Z,73.13
2023-05-25T01:50:08.147Z,72.52
2023-05-25T01:55:18.144Z,72.58
2023-05-25T02:00:21.488Z,72.98
2023-05-25T02:05:23.523Z,73.36
2023-05-25T02:10:25.232Z,73.28
2023-05-25T02:15:32.076Z,73.53
2023-05-25T02:20:34.224Z,73.55
2023-05-25T02:25:36.268Z,73.58
2023-05-25T02:30:38.975Z,73.66
2023-05-25T02:35:41.963Z,73.72
2023-05-25T02:40:45.991Z,73.70
2023-05-25T02:45:47.819Z,73.62
2023-05-25T02:50:49.746Z,73.73
2023-05-25T02:55:51.571Z,73.85
2023-05-25T03:00:55.356Z,74.52
2023-05-25T03:05:57.860Z,74.93
2023-05-25T03:10:59.506Z,75.39
2023-05-25T03:16:01.852Z,75.37
2023-05-25T03:21:03.717Z,75.45
2023-05-25T03:26:06.424Z,75.54
2023-05-25T03:31:08.522Z,75.93
2023-05-25T03:36:12.339Z,75.90
2023-05-25T03:41:14.255Z,75.69
2023-05-25T03:46:16.660Z,75.87
2023-05-25T03:51:18.806Z,75.61
2023-05-25T03:56:21.352Z,75.94
2023-05-25T04:01:26.502Z,75.48
2023-05-25T04:06:30.246Z,75.18
2023-05-25T04:11:32.118Z,75.37
2023-05-25T04:16:34.140Z,75.27
2023-05-25T04:21:37.110Z,75.27
2023-05-25T04:26:39.564Z,75.17
2023-05-25T04:31:43.526Z,75.55
2023-05-25T04:36:48.636Z,75.07
2023-05-25T04:41:52.892Z,75.16
2023-05-25T04:46:55.679Z,74.97
2023-05-25T04:52:05.440Z,74.63
2023-05-25T04:57:08.172Z,74.73
2023-05-25T05:02:10.094Z,74.86
2023-05-25T05:07:12.619Z,74.56
2023-05-25T05:12:14.471Z,74.83
2023-05-25T05:17:23.236Z,74.71
2023-05-25T05:22:25.470Z,74.91
2023-05-25T05:27:27.223Z,74.21
2023-05-25T05:32:35.477Z,74.16
2023-05-25T05:37:37.708Z,73.77
2023-05-25T05:42:39.445Z,74.46
2023-05-25T05:47:41.187Z,74.25
2023-05-25T05:52:42.954Z,73.71
2023-05-25T05:57:45.947Z,73.54
2023-05-25T06:02:47.776Z,73.85
2023-05-25T06:07:54.015Z,73.12
2023-05-25T06:12:56.246Z,72.66
2023-05-25T06:18:01.746Z,71.80
2023-05-25T06:23:05.983Z,72.02
2023-05-25T06:28:07.985Z,71.70
2023-05-25T06:33:09.870Z,71.23
2023-05-25T06:38:12.369Z,70.83
2023-05-25T06:43:14.088Z,70.91
2023-05-25T06:48:19.444Z,70.99
2023-05-25T06:53:21.236Z,70.72
2023-05-25T06:58:23.051Z,70.57
2023-05-25T07:03:25.068Z,70.68
2023-05-25T07:08:26.914Z,70.05
2023-05-25T07:13:28.673Z,69.38
2023-05-25T07:18:30.561Z,69.98
2023-05-25T07:23:32.378Z,69.60
2023-05-25T07:28:34.217Z,69.62
2023-05-25T07:33:36.059Z,69.33
2023-05-25T07:38:37.841Z,69.18
2023-05-25T07:43:40.521Z,68.70
2023-05-25T07:48:42.280Z,68.86
2023-05-25T07:53:44.185Z,68.77
2023-05-25T07:58:46.308Z,68.87
2023-05-25T08:03:49.954Z,68.63
2023-05-25T08:08:52.017Z,68.14
2023-05-25T08:13:53.786Z,68.14
2023-05-25T08:18:55.749Z,67.88
2023-05-25T08:23:57.535Z,68.00
2023-05-25T08:28:59.511Z,67.97
2023-05-25T08:34:01.719Z,67.93
2023-05-25T08:39:04.687Z,67.94
2023-05-25T08:44:08.745Z,66.89
2023-05-25T08:49:15.004Z,66.80
2023-05-25T08:54:22.748Z,66.99
2023-05-25T09:00:01.363Z,66.97
2023-05-25T09:05:03.957Z,67.49
2023-05-25T09:10:08.162Z,67.26
2023-05-25T09:15:13.472Z,66.60
2023-05-25T09:20:17.566Z,67.11
2023-05-25T09:25:22.362Z,67.67
2023-05-25T09:30:24.952Z,67.37
2023-05-25T09:35:26.834Z,67.05
2023-05-25T09:40:28.621Z,66.83
2023-05-25T09:45:30.806Z,67.01
2023-05-25T09:50:36.132Z,67.00
2023-05-25T09:55:52.065Z,66.23
2023-05-25T10:00:56.021Z,65.83
2023-05-25T10:05:58.069Z,65.76
2023-05-25T10:11:00.224Z,65.52
2023-05-25T10:16:03.579Z,65.52
2023-05-25T10:21:09.515Z,65.07
2023-05-25T10:26:16.297Z,64.30
2023-05-25T10:31:18.613Z,63.53
2023-05-25T10:36:20.670Z,62.66
2023-05-25T10:41:22.996Z,62.16
2023-05-25T10:46:25.522Z,62.07
2023-05-25T10:51:40.585Z,62.29
2023-05-25T10:57:20.080Z,62.50
2023-05-25T11:02:25.370Z,62.29
2023-05-25T11:07:27.328Z,62.96
2023-05-25T11:12:29.086Z,63.46
2023-05-25T11:17:32.889Z,63.57
2023-05-25T11:22:36.389Z,63.62
2023-05-25T11:27:46.419Z,63.81
2023-05-25T11:32:51.011Z,63.56
2023-05-25T11:37:53.759Z,63.38
2023-05-25T11:42:57.805Z,63.81
2023-05-25T11:47:59.712Z,63.71
2023-05-25T11:53:07.090Z,63.44
2023-05-25T11:58:08.861Z,62.89
2023-05-25T12:03:12.137Z,62.68
2023-05-25T12:08:13.894Z,63.00
2023-05-25T12:13:16.132Z,62.81
2023-05-25T12:18:18.640Z,62.33
2023-05-25T12:23:21.050Z,62.64
2023-05-25T12:28:22.717Z,62.59
2023-05-25T12:33:24.647Z,62.62
2023-05-25T12:38:26.385Z,63.18
2023-05-25T12:43:36.337Z,63.73
2023-05-25T12:48:38.067Z,63.80
2023-05-25T12:53:49.632Z,63.81
2023-05-25T12:58:51.521Z,63.74
2023-05-25T13:03:53.609Z,63.35
2023-05-25T13:08:55.351Z,63.26
2023-05-25T13:13:57.124Z,62.87
2023-05-25T13:18:58.803Z,62.83
2023-05-25T13:24:00.853Z,62.70
2023-05-25T13:29:02.555Z,63.02
2023-05-25T13:34:04.698Z,63.42
2023-05-25T13:39:07.400Z,63.77
2023-05-25T13:44:11.175Z,63.79
2023-05-25T13:49:15.192Z,64.25
2023-05-25T13:54:18.718Z,64.56
2023-05-25T13:59:20.564Z,64.69
2023-05-25T14:04:23.239Z,65.15
2023-05-25T14:09:24.950Z,65.68
2023-05-25T14:14:31.411Z,65.54
2023-05-25T14:19:35.226Z,65.55
2023-05-25T14:24:36.989Z,65.79
2023-05-25T14:29:38.858Z,65.70
2023-05-25T14:34:40.524Z,66.04
2023-05-25T14:39:42.251Z,66.19
2023-05-25T14:44:44.424Z,66.40
2023-05-25T14:49:46.224Z,66.55
2023-05-25T14:54:47.964Z,66.20
2023-05-25T14:59:50.103Z,66.32
2023-05-25T15:04:54.034Z,66.00
2023-05-25T15:09:55.845Z,66.15
2023-05-25T15:14:57.515Z,66.45
2023-05-25T15:19:59.404Z,66.81
2023-05-25T15:25:02.697Z,66.27
2023-05-25T15:30:07.246Z,66.19
2023-05-25T15:35:09.217Z,66.53
2023-05-25T15:40:11.355Z,66.08
2023-05-25T15:45:13.038Z,66.24
2023-05-25T15:50:14.714Z,66.56
2023-05-25T15:55:16.517Z,66.76
2023-05-25T16:00:18.525Z,66.94
2023-05-25T16:05:20.184Z,66.94
2023-05-25T16:10:22.077Z,66.95
2023-05-25T16:15:23.999Z,67.20
2023-05-25T16:20:25.675Z,67.29
2023-05-25T16:25:27.666Z,66.75
2023-05-25T16:30:29.346Z,66.78
2023-05-25T16:35:31.044Z,67.10
2023-05-25T16:40:33.648Z,66.59
2023-05-25T16:45:35.348Z,66.45
2023-05-25T16:50:37.061Z,66.50
2023-05-25T16:55:39.002Z,67.00
2023-05-25T17:00:40.720Z,67.09
2023-05-25T17:05:42.554Z,67.13
2023-05-25T17:10:47.485Z,66.95
2023-05-25T17:15:49.557Z,67.19
2023-05-25T17:20:51.331Z,67.40
2023-05-25T17:25:53.012Z,67.75
2023-05-25T17:30:56.590Z,68.06
2023-05-25T17:35:58.825Z,68.47
2023-05-25T17:41:00.769Z,68.63
2023-05-25T17:46:02.765Z,68.50
2023-05-25T17:51:04.931Z,69.06
2023-05-25T17:56:06.913Z,69.34
2023-05-25T18:01:09.127Z,69.45
2023-05-25T18:06:10.945Z,69.74
2023-05-25T18:11:12.733Z,70.02
2023-05-25T18:16:14.453Z,70.19
2023-05-25T18:21:16.255Z,70.09
2023-05-25T18:26:17.973Z,70.21
2023-05-25T18:31:20.025Z,70.52
2023-05-25T18:36:21.766Z,70.95
2023-05-25T18:41:24.545Z,71.28
2023-05-25T18:46:27.907Z,71.40
2023-05-25T18:51:29.726Z,71.74
2023-05-25T18:56:31.392Z,71.62
2023-05-25T19:01:33.359Z,72.18
2023-05-25T19:06:36.172Z,72.18
2023-05-25T19:11:37.888Z,72.26
2023-05-25T19:16:39.585Z,72.30
2023-05-25T19:21:41.384Z,72.77
2023-05-25T19:26:43.084Z,72.98
2023-05-25T19:31:44.865Z,72.98
2023-05-25T19:36:48.227Z,73.23
2023-05-25T19:41:55.636Z,73.33
2023-05-25T19:46:57.505Z,73.58
2023-05-25T19:51:59.416Z,73.49
2023-05-25T19:57:01.653Z,73.53
2023-05-25T20:02:04.157Z,73.85
2023-05-25T20:07:05.882Z,73.73
2023-05-25T20:12:08.033Z,73.75
2023-05-25T20:17:09.715Z,73.88
2023-05-25T20:22:11.492Z,73.86
2023-05-25T20:27:13.292Z,73.91
2023-05-25T20:32:15.083Z,73.91
2023-05-25T20:37:17.362Z,74.13
2023-05-25T20:42:19.382Z,74.32
2023-05-25T20:47:21.148Z,74.59
2023-05-25T20:52:23.475Z,75.16
2023-05-25T20:57:25.593Z,75.59
2023-05-25T21:02:28.546Z,75.79
2023-05-25T21:07:30.471Z,75.91
2023-05-25T21:12:33.022Z,75.93
2023-05-25T21:17:36.084Z,75.95
2023-05-25T21:22:37.859Z,75.98
2023-05-25T21:27:39.620Z,76.48
2023-05-25T21:32:43.743Z,76.00
2023-05-25T21:37:45.992Z,76.06
2023-05-25T21:42:53.277Z,76.30
2023-05-25T21:47:55.616Z,76.33
2023-05-25T21:52:59.157Z,76.06
2023-05-25T21:58:01.007Z,76.17
2023-05-25T22:03:03.638Z,75.83
2023-05-25T22:08:05.947Z,75.74
2023-05-25T22:13:07.949Z,75.96
2023-05-25T22:18:09.694Z,76.02
2023-05-25T22:23:12.194Z,76.33
2023-05-25T22:28:14.929Z,76.11
2023-05-25T22:33:16.634Z,75.80
2023-05-25T22:38:18.320Z,75.40
2023-05-25T22:43:20.243Z,75.55
2023-05-25T22:48:22.100Z,75.46
2023-05-25T22:53:23.954Z,75.76
2023-05-25T22:58:26.026Z,76.02
2023-05-25T23:03:27.893Z,75.86
2023-05-25T23:08:30.542Z,76.21
2023-05-25T23:13:33.464Z,76.27
2023-05-25T23:18:35.205Z,76.47
2023-05-25T23:23:36.880Z,76.27
2023-05-25T23:28:38.894Z,76.08
2023-05-25T23:33:40.752Z,76.13
2023-05-25T23:38:42.752Z,75.79
2023-05-25T23:43:46.278Z,75.75
2023-05-25T23:48:48.528Z,75.60
2023-05-25T23:53:51.916Z,75.46
2023-05-25T23:58:54.478Z,75.87
